Time;durP1;ratioP1;P1;durP2;ratioP2;P2;SDS_P1;SDS_P2;PMS_P1;PMS_P2;Temp;Humidity;BMP_temperature;BMP_pressure;BME280_temperature;BME280_humidity;BME280_pressure;Samples;Min_cycle;Max_cycle;Signal;HPM_P1;HPM_P2
2023/03/16 00:01:58;;;;;;;1.43;1.33;;;1.70;99.90;2.70;96910.00;;;;4999758;28;20442;-70
2023/03/16 00:04:47;;;;;;;1.57;1.17;;;1.80;99.90;2.40;96907.00;;;;4986602;28;20412;-71
2023/03/16 00:07:37;;;;;;;5.90;1.47;;;1.70;99.90;2.30;96914.00;;;;5000765;28;20476;-70
2023/03/16 00:10:26;;;;;;;2.27;1.30;;;1.50;99.90;2.70;96922.00;;;;4996957;28;20438;-70
2023/03/16 00:13:16;;;;;;;3.73;1.23;;;1.60;99.90;2.70;96930.00;;;;4997871;28;20944;-69
2023/03/16 00:16:06;;;;;;;0.90;0.90;;;1.60;99.90;2.70;96919.00;;;;4984448;28;20429;-70
2023/03/16 00:18:58;;;;;;;1.33;1.20;;;1.60;99.90;2.80;96923.00;;;;4997412;28;20448;-70
2023/03/16 00:21:46;;;;;;;1.43;1.33;;;1.80;99.90;2.70;96912.00;;;;4995067;28;20414;-70
2023/03/16 00:24:36;;;;;;;1.00;1.00;;;1.50;99.90;2.60;96921.00;;;;4997479;28;20437;-70
2023/03/16 00:27:27;;;;;;;1.40;1.30;;;1.70;99.90;2.50;96915.00;;;;4998368;28;21015;-71
2023/03/16 00:30:16;;;;;;;1.67;1.27;;;1.80;99.90;2.50;96927.00;;;;4994572;28;20750;-70
2023/03/16 00:33:05;;;;;;;1.43;0.80;;;1.50;99.90;2.40;96931.00;;;;4989960;28;20425;-70
2023/03/16 00:36:00;;;;;;;0.80;0.80;;;1.90;99.90;2.60;96930.00;;;;4991944;28;20452;-70
2023/03/16 00:38:50;;;;;;;2.93;1.40;;;1.70;99.90;2.10;96928.00;;;;4997347;28;20410;-69
2023/03/16 00:41:40;;;;;;;1.30;1.20;;;1.50;99.90;2.30;96937.00;;;;4998067;28;20418;-69
2023/03/16 00:44:30;;;;;;;1.63;1.00;;;1.70;99.90;2.50;96944.00;;;;5001337;28;21142;-69
2023/03/16 00:47:19;;;;;;;0.70;0.70;;;1.80;99.90;2.40;96934.00;;;;4992359;28;20471;-69
2023/03/16 00:50:08;;;;;;;1.57;1.47;;;1.30;99.90;2.40;96931.00;;;;4995526;28;20424;-69
2023/03/16 00:52:57;;;;;;;1.20;1.20;;;1.70;99.90;2.40;96937.00;;;;4994379;28;20949;-69
2023/03/16 00:55:46;;;;;;;1.00;1.00;;;1.60;99.90;2.30;96932.00;;;;4982931;28;20442;-69
2023/03/16 00:58:39;;;;;;;1.20;1.00;;;1.70;99.90;2.30;96935.00;;;;4993987;28;20484;-69
2023/03/16 01:01:27;;;;;;;1.10;0.90;;;1.20;99.90;2.10;96939.00;;;;4998401;28;20435;-69
2023/03/16 01:04:16;;;;;;;1.57;1.27;;;1.40;99.90;2.00;96935.00;;;;4992556;28;20811;-69
2023/03/16 01:07:06;;;;;;;3.03;1.00;;;0.80;99.90;2.00;96941.00;;;;5011256;28;20475;-69
2023/03/16 01:09:54;;;;;;;1.53;1.43;;;1.20;99.90;2.10;96954.00;;;;4994749;28;20521;-70
2023/03/16 01:12:44;;;;;;;3.57;1.30;;;1.30;99.90;1.70;96951.00;;;;4986706;28;20418;-69
2023/03/16 01:15:35;;;;;;;2.30;0.70;;;1.10;99.90;1.80;96937.00;;;;5001095;28;20988;-69
2023/03/16 01:18:24;;;;;;;1.57;1.13;;;1.20;99.90;1.90;96939.00;;;;4992933;28;20468;-70
2023/03/16 01:21:13;;;;;;;1.00;1.00;;;0.90;99.90;2.20;96942.00;;;;4997830;28;20806;-70
2023/03/16 01:24:03;;;;;;;1.90;0.97;;;1.20;99.90;2.40;96933.00;;;;4998084;28;20517;-70
2023/03/16 01:26:53;;;;;;;1.00;0.90;;;1.40;99.90;2.30;96940.00;;;;4987844;28;20486;-71
2023/03/16 01:29:43;;;;;;;0.80;0.80;;;1.40;99.90;2.30;96937.00;;;;4991438;28;20417;-71
2023/03/16 01:32:34;;;;;;;3.17;1.30;;;1.50;99.90;2.40;96950.00;;;;4998691;28;20434;-70
2023/03/16 01:35:22;;;;;;;0.77;0.77;;;1.30;99.90;2.30;96953.00;;;;4991457;28;20435;-71
2023/03/16 01:38:11;;;;;;;2.13;1.33;;;1.20;99.90;2.30;96951.00;;;;4993316;28;20453;-71
2023/03/16 01:41:00;;;;;;;2.17;1.40;;;1.30;99.90;2.30;96951.00;;;;4997273;28;20904;-71
2023/03/16 01:43:50;;;;;;;3.50;1.43;;;1.40;99.90;2.20;96938.00;;;;4992570;28;20439;-70
2023/03/16 01:46:40;;;;;;;2.10;1.30;;;1.20;99.90;2.30;96947.00;;;;4999596;28;20470;-71
2023/03/16 01:49:33;;;;;;;2.83;1.70;;;1.30;99.90;2.10;96947.00;;;;4988012;28;20440;-70
2023/03/16 01:52:25;;;;;;;1.60;1.30;;;1.20;99.90;1.90;96951.00;;;;4997093;28;20836;-70
2023/03/16 01:55:14;;;;;;;2.53;1.20;;;1.20;99.90;2.00;96941.00;;;;4990999;28;20851;-70
2023/03/16 01:58:03;;;;;;;2.73;1.43;;;1.10;99.90;1.90;96947.00;;;;5001062;28;20472;-70
2023/03/16 02:00:52;;;;;;;5.17;1.43;;;1.00;99.90;1.80;96943.00;;;;5001198;28;20441;-70
2023/03/16 02:03:43;;;;;;;1.13;1.10;;;1.40;99.90;2.00;96948.00;;;;4989012;28;20418;-70
2023/03/16 02:06:34;;;;;;;1.43;1.23;;;1.00;99.90;2.10;96962.00;;;;4993496;28;20504;-70
2023/03/16 02:09:24;;;;;;;0.97;0.97;;;1.20;99.90;1.90;96964.00;;;;4997351;28;20434;-70
2023/03/16 02:12:17;;;;;;;1.33;1.10;;;1.40;99.90;1.40;96953.00;;;;4989539;28;20967;-70
2023/03/16 02:15:07;;;;;;;0.90;0.80;;;0.80;99.90;1.60;96957.00;;;;4992858;28;20438;-71
2023/03/16 02:17:59;;;;;;;2.60;1.00;;;0.90;99.90;1.70;96958.00;;;;4990525;28;20451;-70
2023/03/16 02:20:53;;;;;;;1.10;0.60;;;1.00;99.90;1.80;96966.00;;;;4996753;28;20418;-70
2023/03/16 02:23:43;;;;;;;1.00;1.00;;;0.80;99.90;1.90;96969.00;;;;4981645;28;20849;-70
2023/03/16 02:26:43;;;;;;;2.27;1.30;;;1.10;99.90;1.90;96970.00;;;;4977757;28;20810;-70
2023/03/16 02:30:05;;;;;;;0.90;0.90;;;0.90;99.90;2.00;96978.00;;;;5003673;28;20436;-70
2023/03/16 02:32:54;;;;;;;1.17;1.17;;;0.80;99.90;1.80;96973.00;;;;4993157;28;20450;-70
2023/03/16 02:35:43;;;;;;;1.67;1.23;;;0.80;99.90;2.00;96983.00;;;;4998514;28;20441;-70
2023/03/16 02:38:32;;;;;;;4.13;1.00;;;0.70;99.90;2.00;96982.00;;;;4995102;28;20451;-70
2023/03/16 02:41:22;;;;;;;1.37;1.07;;;1.30;99.90;1.90;96976.00;;;;5000172;28;20440;-70
2023/03/16 02:44:15;;;;;;;0.70;0.70;;;1.10;99.90;1.80;96975.00;;;;4992182;28;20780;-70
2023/03/16 02:47:14;;;;;;;8.47;4.10;;;0.90;99.90;1.80;96982.00;;;;4985596;28;20468;-70
2023/03/16 02:50:05;;;;;;;5.00;1.83;;;0.90;99.90;1.50;96976.00;;;;4994731;28;20444;-70
2023/03/16 02:52:54;;;;;;;1.70;1.50;;;1.00;99.90;0.90;96981.00;;;;5000657;28;20438;-71
2023/03/16 02:55:43;;;;;;;3.90;1.97;;;0.80;99.90;1.20;96989.00;;;;4978090;28;20423;-70
2023/03/16 02:58:32;;;;;;;0.90;0.90;;;0.50;99.90;0.70;96985.00;;;;4992954;28;20838;-73
2023/03/16 03:01:21;;;;;;;1.20;1.10;;;0.80;99.90;1.00;96987.00;;;;4999754;28;20522;-70
2023/03/16 03:04:11;;;;;;;3.43;1.57;;;0.60;99.90;1.30;96990.00;;;;4994759;28;20425;-72
2023/03/16 03:07:03;;;;;;;1.13;1.00;;;0.70;99.90;1.40;96989.00;;;;4998777;28;20445;-71
2023/03/16 03:09:52;;;;;;;1.57;1.40;;;0.60;99.90;1.30;96996.00;;;;4998429;28;20431;-71
2023/03/16 03:12:41;;;;;;;1.40;1.00;;;0.30;99.90;1.10;96987.00;;;;4987969;28;20421;-70
2023/03/16 03:15:30;;;;;;;1.23;1.13;;;0.60;99.90;0.80;96990.00;;;;4999996;28;20845;-71
2023/03/16 03:18:18;;;;;;;1.43;1.20;;;0.60;99.90;1.20;97014.00;;;;4998311;28;20449;-71
2023/03/16 03:21:08;;;;;;;1.67;0.70;;;0.60;99.90;0.70;97001.00;;;;4997540;28;20429;-73
2023/03/16 03:23:57;;;;;;;7.60;1.67;;;0.10;99.90;0.80;97007.00;;;;4993702;28;20421;-71
2023/03/16 03:26:46;;;;;;;2.27;1.03;;;0.50;99.90;1.10;97017.00;;;;5000403;28;20453;-71
2023/03/16 03:29:35;;;;;;;1.20;1.10;;;0.40;99.90;1.30;97020.00;;;;4987623;28;20443;-72
2023/03/16 03:32:23;;;;;;;1.07;0.97;;;0.10;99.90;1.10;97016.00;;;;4985214;28;20434;-72
2023/03/16 03:35:15;;;;;;;2.40;1.23;;;0.30;99.90;1.10;97028.00;;;;4998869;28;20433;-72
2023/03/16 03:38:06;;;;;;;2.70;1.50;;;-0.10;99.90;1.00;97032.00;;;;4994128;28;20460;-72
2023/03/16 03:40:58;;;;;;;0.80;0.80;;;0.00;99.90;1.10;97024.00;;;;4987997;28;20434;-73
2023/03/16 03:43:47;;;;;;;1.30;1.20;;;0.40;99.90;1.10;97026.00;;;;4985158;28;20902;-72
2023/03/16 03:46:35;;;;;;;1.00;0.90;;;0.60;99.90;1.10;97041.00;;;;5001229;28;20469;-73
2023/03/16 03:49:24;;;;;;;1.57;1.00;;;0.00;99.90;0.70;97032.00;;;;4984454;28;20485;-72
2023/03/16 03:52:13;;;;;;;1.47;1.20;;;-0.10;99.90;0.90;97041.00;;;;4993167;28;20860;-73
2023/03/16 03:55:04;;;;;;;0.87;0.87;;;-0.10;99.90;1.00;97044.00;;;;5000775;28;20426;-72
2023/03/16 03:57:53;;;;;;;1.57;0.97;;;0.00;99.90;1.00;97053.00;;;;5001208;28;20452;-72
2023/03/16 04:00:42;;;;;;;0.83;0.83;;;0.30;99.90;0.90;97058.00;;;;5000815;28;20609;-72
2023/03/16 04:03:31;;;;;;;1.80;1.43;;;0.20;99.90;0.40;97053.00;;;;4992374;28;20426;-73
2023/03/16 04:06:19;;;;;;;1.63;1.10;;;0.20;99.90;0.70;97055.00;;;;4997819;28;20956;-72
2023/03/16 04:09:08;;;;;;;3.20;1.40;;;-0.40;99.90;0.80;97064.00;;;;4987912;28;20453;-72
2023/03/16 04:11:59;;;;;;;1.25;1.10;;;-0.50;99.90;0.40;97057.00;;;;4997588;28;20434;-72
2023/03/16 04:14:47;;;;;;;1.30;1.23;;;0.20;99.90;-0.10;97062.00;;;;4995631;28;20470;-73
2023/03/16 04:17:36;;;;;;;0.93;0.93;;;0.00;99.90;0.10;97061.00;;;;4992552;28;20445;-74
2023/03/16 04:20:25;;;;;;;1.13;1.13;;;-0.10;99.90;0.50;97063.00;;;;4987755;28;20485;-74
2023/03/16 04:23:15;;;;;;;2.83;1.17;;;-0.40;99.90;0.60;97067.00;;;;4990187;28;20440;-74
2023/03/16 04:26:05;;;;;;;1.93;1.23;;;-0.30;99.90;0.60;97065.00;;;;4994288;28;20442;-74
2023/03/16 04:28:55;;;;;;;1.70;1.30;;;-0.50;99.90;0.10;97067.00;;;;5000429;28;21080;-74
2023/03/16 04:31:45;;;;;;;0.97;0.97;;;-0.40;99.90;-0.10;97064.00;;;;4993221;28;20433;-70
2023/03/16 04:34:34;;;;;;;4.07;1.10;;;-0.30;99.90;0.00;97070.00;;;;4995483;28;20947;-69
2023/03/16 04:37:22;;;;;;;4.27;1.37;;;-0.40;99.90;-0.60;97070.00;;;;4998866;28;20446;-71
2023/03/16 04:40:16;;;;;;;1.23;1.07;;;-0.40;99.90;-0.50;97069.00;;;;4991493;28;20441;-72
2023/03/16 04:43:05;;;;;;;3.07;1.00;;;-1.10;99.90;-0.30;97072.00;;;;4988036;28;20430;-71
2023/03/16 04:45:55;;;;;;;1.03;0.93;;;-0.80;99.90;-0.20;97080.00;;;;4994602;28;20432;-70
2023/03/16 04:48:44;;;;;;;1.30;1.20;;;-0.90;99.90;-0.10;97077.00;;;;4997877;28;20835;-70
2023/03/16 04:51:33;;;;;;;1.43;0.93;;;-0.90;99.90;-0.30;97078.00;;;;4999783;28;20946;-71
2023/03/16 04:54:22;;;;;;;1.80;1.10;;;-0.90;99.90;-0.50;97090.00;;;;4996247;28;20426;-71
2023/03/16 04:57:10;;;;;;;4.30;1.83;;;-1.00;99.90;-0.20;97096.00;;;;4977076;28;20454;-71
2023/03/16 04:59:59;;;;;;;3.70;1.57;;;-0.50;99.90;-0.10;97106.00;;;;4973139;28;20803;-70
2023/03/16 05:02:51;;;;;;;2.03;1.40;;;-0.60;99.90;-0.20;97102.00;;;;4976376;28;20422;-70
2023/03/16 05:05:41;;;;;;;1.50;1.13;;;-0.80;99.90;-0.10;97121.00;;;;4978669;28;20446;-70
2023/03/16 05:08:30;;;;;;;1.80;0.90;;;-0.80;99.90;0.20;97122.00;;;;4996270;28;20474;-70
2023/03/16 05:11:18;;;;;;;1.40;1.30;;;-1.00;99.90;0.00;97122.00;;;;4973762;28;20438;-69
2023/03/16 05:14:07;;;;;;;1.20;1.20;;;-1.00;99.90;0.00;97126.00;;;;4979163;28;20965;-70
2023/03/16 05:16:56;;;;;;;0.70;0.70;;;-0.70;99.90;-0.30;97130.00;;;;4995192;28;20467;-72
2023/03/16 05:19:46;;;;;;;2.33;0.80;;;-0.70;99.90;-0.40;97132.00;;;;4990080;28;20800;-73
2023/03/16 05:22:35;;;;;;;1.00;1.00;;;-0.90;99.90;-0.20;97129.00;;;;4998478;28;21048;-68
2023/03/16 05:25:23;;;;;;;3.10;1.30;;;-0.70;99.90;0.10;97137.00;;;;4995056;28;20437;-69
2023/03/16 05:28:12;;;;;;;1.57;0.90;;;-0.60;99.90;0.30;97149.00;;;;4986416;28;20481;-70
2023/03/16 05:31:02;;;;;;;0.73;0.73;;;-0.50;99.90;0.50;97151.00;;;;4992684;28;20427;-69
2023/03/16 05:33:52;;;;;;;1.63;1.53;;;-0.40;99.90;0.70;97156.00;;;;4996274;28;20442;-70
2023/03/16 05:36:43;;;;;;;1.10;1.10;;;-0.40;99.90;0.70;97148.00;;;;4973989;28;20443;-70
2023/03/16 05:39:33;;;;;;;10.37;1.43;;;-0.10;99.90;0.10;97149.00;;;;4994866;28;20422;-68
2023/03/16 05:42:22;;;;;;;2.67;1.10;;;-0.20;99.90;0.10;97142.00;;;;4972819;28;20446;-69
2023/03/16 05:45:11;;;;;;;1.90;1.67;;;-0.10;99.90;-0.40;97141.00;;;;4998164;28;20456;-72
2023/03/16 05:48:00;;;;;;;1.40;1.30;;;-0.90;99.90;-0.50;97144.00;;;;5013343;28;20515;-73
2023/03/16 05:50:50;;;;;;;3.27;0.90;;;-0.80;99.90;-0.20;97134.00;;;;5019432;28;20421;-73
2023/03/16 05:53:40;;;;;;;1.27;1.17;;;-1.10;99.90;-0.40;97138.00;;;;5023430;28;20429;-67
2023/03/16 05:56:29;;;;;;;1.10;1.10;;;-0.50;99.90;-0.50;97125.00;;;;5036168;28;21695;-66
2023/03/16 05:59:18;;;;;;;1.23;1.13;;;-0.60;99.90;-0.10;97139.00;;;;5006985;28;20516;-68
2023/03/16 06:02:10;;;;;;;0.87;0.87;;;-0.80;99.90;-0.30;97133.00;;;;4976949;28;20946;-78
2023/03/16 06:04:58;;;;;;;0.50;0.50;;;-0.60;99.90;0.00;97139.00;;;;4996817;28;20440;-73
2023/03/16 06:07:48;;;;;;;1.23;1.13;;;-0.30;99.90;0.40;97149.00;;;;5024291;28;20484;-73
2023/03/16 06:10:39;;;;;;;1.17;1.10;;;-0.10;99.90;0.90;97172.00;;;;4983852;28;20475;-67
2023/03/16 06:13:27;;;;;;;2.00;1.90;;;0.20;99.90;1.10;97186.00;;;;4996263;28;20454;-70
2023/03/16 06:16:16;;;;;;;1.57;1.43;;;0.30;99.90;1.60;97192.00;;;;5001093;28;20811;-75
2023/03/16 06:19:05;;;;;;;2.23;1.97;;;0.40;99.90;2.00;97205.00;;;;4999472;28;20421;-74
2023/03/16 06:21:54;;;;;;;12.10;2.20;;;0.80;99.90;2.20;97198.00;;;;4993278;28;20937;-74
2023/03/16 06:24:42;;;;;;;1.87;1.70;;;0.30;99.90;2.10;97206.00;;;;4975812;28;20435;-74
2023/03/16 06:27:32;;;;;;;2.63;2.20;;;0.80;99.90;2.30;97202.00;;;;4978046;28;20885;-75
2023/03/16 06:30:21;;;;;;;3.83;2.57;;;0.30;99.90;2.50;97204.00;;;;4977082;28;20474;-75
2023/03/16 06:33:10;;;;;;;3.50;2.93;;;0.70;99.90;2.50;97206.00;;;;4984191;28;20468;-74
2023/03/16 06:35:59;;;;;;;2.07;1.77;;;1.40;99.90;2.70;97201.00;;;;4997791;28;20428;-74
2023/03/16 06:38:48;;;;;;;8.47;2.03;;;1.10;99.90;2.20;97197.00;;;;4983521;28;20439;-69
2023/03/16 06:41:36;;;;;;;1.00;1.00;;;1.60;99.90;1.50;97180.00;;;;4987959;28;20429;-73
2023/03/16 06:44:27;;;;;;;1.17;1.07;;;1.20;99.90;1.20;97185.00;;;;5030670;28;20428;-74
2023/03/16 06:47:15;;;;;;;3.27;1.10;;;1.00;99.90;1.40;97165.00;;;;5018333;28;20445;-68
2023/03/16 06:50:06;;;;;;;1.30;1.20;;;0.80;99.90;1.40;97169.00;;;;5007638;28;20546;-74
2023/03/16 06:52:54;;;;;;;1.37;1.30;;;0.80;99.90;1.80;97163.00;;;;4997533;28;20429;-74
2023/03/16 06:55:43;;;;;;;1.23;1.23;;;1.20;99.90;1.80;97174.00;;;;4999299;28;20513;-69
2023/03/16 06:58:32;;;;;;;1.63;1.30;;;0.80;99.90;1.90;97171.00;;;;4999767;28;20975;-73
2023/03/16 07:01:22;;;;;;;1.73;1.63;;;0.90;99.90;2.50;97184.00;;;;4996139;28;20434;-69
2023/03/16 07:04:12;;;;;;;2.60;1.97;;;1.40;99.90;3.40;97182.00;;;;4977163;28;20461;-69
2023/03/16 07:07:00;;;;;;;1.60;1.50;;;1.90;99.90;3.80;97183.00;;;;5021629;28;20437;-72
2023/03/16 07:09:49;;;;;;;1.57;1.47;;;1.70;99.90;4.40;97186.00;;;;4987042;28;21485;-73
2023/03/16 07:12:38;;;;;;;1.73;1.63;;;2.10;99.90;4.70;97184.00;;;;4983347;28;20423;-70
2023/03/16 07:15:27;;;;;;;1.20;1.10;;;3.00;99.90;4.90;97184.00;;;;4977524;28;20836;-74
2023/03/16 07:18:17;;;;;;;2.07;1.23;;;2.90;99.90;5.40;97184.00;;;;4976204;28;20459;-72
2023/03/16 07:21:06;;;;;;;1.47;1.33;;;3.40;99.90;5.50;97183.00;;;;4979908;28;20933;-77
2023/03/16 07:23:55;;;;;;;1.20;1.10;;;3.40;99.90;5.70;97194.00;;;;4970329;28;20431;-76
2023/03/16 07:26:45;;;;;;;1.43;1.13;;;3.60;99.90;5.90;97191.00;;;;4980860;28;20431;-74
2023/03/16 07:29:34;;;;;;;1.50;1.40;;;4.00;99.90;6.00;97194.00;;;;4975315;28;20466;-69
2023/03/16 07:32:23;;;;;;;4.73;1.80;;;4.20;99.90;6.00;97202.00;;;;4978854;28;20212;-73
2023/03/16 07:35:13;;;;;;;2.93;1.27;;;4.30;99.90;6.30;97205.00;;;;5000729;28;20429;-76
2023/03/16 07:38:02;;;;;;;1.40;1.23;;;4.30;99.90;6.50;97201.00;;;;4996247;28;20227;-74
2023/03/16 07:40:51;;;;;;;0.93;0.93;;;4.50;99.90;6.20;97199.00;;;;4986666;28;20210;-75
2023/03/16 07:43:40;;;;;;;3.77;2.30;;;4.60;99.90;6.40;97194.00;;;;4990054;28;20199;-74
2023/03/16 07:46:31;;;;;;;1.77;1.43;;;5.00;99.90;6.60;97199.00;;;;4997728;28;20206;-69
2023/03/16 07:49:20;;;;;;;0.80;0.80;;;5.20;99.90;6.20;97195.00;;;;4995280;28;20194;-66
2023/03/16 07:52:12;;;;;;;1.37;1.27;;;5.00;99.90;6.40;97199.00;;;;5000776;28;20587;-82
2023/03/16 07:55:01;;;;;;;1.90;1.43;;;5.10;99.90;6.90;97204.00;;;;4999064;28;20199;-72
2023/03/16 07:57:50;;;;;;;2.30;1.10;;;5.00;99.90;7.00;97201.00;;;;5000108;28;20218;-72
2023/03/16 08:00:39;;;;;;;1.87;1.57;;;5.30;99.70;6.70;97204.00;;;;4996571;28;20560;-74
2023/03/16 08:03:30;;;;;;;1.40;1.13;;;5.30;98.20;7.30;97196.00;;;;4993256;28;20211;-72
2023/03/16 08:06:20;;;;;;;0.80;0.80;;;5.20;98.30;7.50;97205.00;;;;4993964;28;20216;-72
2023/03/16 08:09:10;;;;;;;3.50;0.97;;;5.60;97.90;7.50;97208.00;;;;4994651;28;20195;-70
2023/03/16 08:11:59;;;;;;;1.10;1.00;;;5.70;96.70;7.80;97208.00;;;;4986405;28;20213;-72
2023/03/16 08:14:48;;;;;;;1.10;1.00;;;6.00;96.40;7.70;97208.00;;;;4996990;28;20214;-74
2023/03/16 08:17:36;;;;;;;1.27;1.17;;;6.00;95.50;8.10;97213.00;;;;4984452;28;20218;-70
2023/03/16 08:20:25;;;;;;;1.40;1.17;;;6.10;95.00;8.20;97214.00;;;;4975300;28;20257;-66
2023/03/16 08:23:14;;;;;;;0.77;0.73;;;6.30;94.00;8.20;97214.00;;;;4972264;28;20203;-68
2023/03/16 08:26:07;;;;;;;0.60;0.60;;;6.30;93.20;8.40;97218.00;;;;4973137;28;20287;-68
2023/03/16 08:28:57;;;;;;;1.27;1.10;;;6.50;93.00;8.10;97200.00;;;;4968781;28;20217;-77
2023/03/16 08:31:46;;;;;;;1.93;0.80;;;6.50;91.90;8.40;97211.00;;;;4971082;28;20227;-70
2023/03/16 08:34:35;;;;;;;0.70;0.70;;;6.60;91.60;8.60;97219.00;;;;4973229;28;20196;-73
2023/03/16 08:37:24;;;;;;;1.27;0.90;;;6.70;91.10;8.90;97227.00;;;;4976714;28;20223;-71
2023/03/16 08:40:14;;;;;;;0.90;0.90;;;6.90;91.40;8.70;97225.00;;;;4977415;28;20221;-71
2023/03/16 08:43:05;;;;;;;0.77;0.77;;;7.10;90.70;8.80;97224.00;;;;4989349;28;20212;-71
2023/03/16 08:45:54;;;;;;;0.80;0.80;;;7.30;89.20;9.40;97233.00;;;;4979975;28;20196;-72
2023/03/16 08:48:43;;;;;;;0.70;0.70;;;7.20;87.70;9.00;97222.00;;;;4995772;28;20589;-69
2023/03/16 08:51:32;;;;;;;3.23;2.53;;;7.30;85.00;9.30;97238.00;;;;4983476;28;20603;-74
2023/03/16 08:54:21;;;;;;;9.10;5.40;;;7.40;84.40;8.90;97221.00;;;;4995434;28;20233;-76
2023/03/16 08:57:11;;;;;;;1.73;1.53;;;7.40;81.90;9.50;97244.00;;;;4989219;28;20222;-67
2023/03/16 09:00:08;;;;;;;4.63;1.20;;;7.60;82.00;9.30;97236.00;;;;4999941;28;20206;-72
2023/03/16 09:02:59;;;;;;;0.80;0.80;;;7.60;78.90;9.30;97233.00;;;;4977405;28;20205;-69
2023/03/16 09:05:48;;;;;;;1.33;1.00;;;7.60;77.20;9.40;97238.00;;;;4975717;28;20686;-71
2023/03/16 09:08:38;;;;;;;1.97;1.40;;;7.60;76.70;9.80;97241.00;;;;4975572;28;20701;-69
2023/03/16 09:11:29;;;;;;;2.90;1.50;;;7.60;76.20;10.40;97243.00;;;;4970134;28;20235;-68
2023/03/16 09:14:18;;;;;;;1.07;0.70;;;7.80;77.30;10.30;97252.00;;;;4973803;28;20699;-69
2023/03/16 09:17:10;;;;;;;3.07;1.60;;;8.40;73.40;10.20;97253.00;;;;4979519;28;20575;-74
2023/03/16 09:19:59;;;;;;;3.10;0.80;;;8.40;69.80;10.10;97260.00;;;;4970912;28;20256;-68
2023/03/16 09:23:03;;;;;;;0.80;0.80;;;8.40;68.10;10.60;97256.00;;;;4973432;28;20312;-67
2023/03/16 09:25:52;;;;;;;0.53;0.53;;;8.60;68.10;10.30;97259.00;;;;4970440;28;20209;-74
2023/03/16 09:28:42;;;;;;;1.03;0.90;;;8.60;65.50;10.30;97256.00;;;;4967058;28;20203;-66
2023/03/16 09:31:30;;;;;;;1.47;1.03;;;8.40;65.40;10.80;97256.00;;;;4971402;28;20226;-70
2023/03/16 09:34:21;;;;;;;0.60;0.60;;;8.70;65.10;10.60;97258.00;;;;4973366;28;20210;-68
2023/03/16 09:37:15;;;;;;;0.70;0.67;;;8.80;64.90;10.90;97263.00;;;;4971825;28;20280;-68
2023/03/16 09:40:07;;;;;;;1.03;0.60;;;9.00;64.00;10.80;97255.00;;;;4975846;28;20246;-77
2023/03/16 09:43:27;;;;;;;0.60;0.60;;;8.90;62.00;11.30;97269.00;;;;4976423;28;20696;-70
2023/03/16 09:46:26;;;;;;;0.63;0.63;;;9.10;60.90;10.80;97257.00;;;;4971393;28;20199;-75
2023/03/16 09:49:20;;;;;;;3.17;0.70;;;9.40;60.50;11.50;97271.00;;;;4972290;28;20206;-68
2023/03/16 09:52:23;;;;;;;0.90;0.80;;;9.60;60.50;12.00;97263.00;;;;4970078;28;20268;-68
2023/03/16 09:55:26;;;;;;;0.40;0.40;;;9.70;60.20;11.90;97262.00;;;;5030138;28;20229;-66
2023/03/16 09:58:20;;;;;;;0.67;0.67;;;10.10;58.70;11.40;97258.00;;;;5021368;28;20217;-67
2023/03/16 10:01:20;;;;;;;0.77;0.60;;;9.80;57.10;12.20;97264.00;;;;5003661;28;20211;-67
2023/03/16 10:04:29;;;;;;;0.80;0.77;;;10.10;57.40;12.90;97266.00;;;;4989156;28;20199;-67
2023/03/16 10:07:31;;;;;;;0.50;0.50;;;10.20;58.50;11.90;97259.00;;;;4971800;28;20222;-66
2023/03/16 10:10:37;;;;;;;0.70;0.70;;;10.50;54.30;12.50;97259.00;;;;4969749;28;20578;-71
2023/03/16 10:13:36;;;;;;;0.60;0.60;;;10.40;55.80;12.90;97278.00;;;;4974831;28;20214;-69
2023/03/16 10:16:32;;;;;;;0.80;0.50;;;10.50;56.40;13.10;97277.00;;;;4972901;28;20206;-67
2023/03/16 10:19:35;;;;;;;0.63;0.50;;;10.80;56.60;12.00;97271.00;;;;4977084;28;20597;-72
2023/03/16 10:22:27;;;;;;;1.43;0.50;;;10.90;54.00;12.20;97259.00;;;;4977801;28;20847;-70
2023/03/16 10:25:23;;;;;;;1.83;0.90;;;10.80;54.00;11.50;97255.00;;;;4974385;28;20574;-77
2023/03/16 10:28:18;;;;;;;1.70;1.40;;;10.70;52.20;11.60;97253.00;;;;4965729;28;20243;-74
2023/03/16 10:31:07;;;;;;;0.50;0.50;;;10.60;53.10;11.70;97234.00;;;;4976845;28;20215;-73
2023/03/16 10:34:07;;;;;;;0.97;0.67;;;10.30;53.60;12.90;97260.00;;;;4976755;28;20199;-67
2023/03/16 10:36:57;;;;;;;1.67;1.57;;;10.90;55.10;13.10;97252.00;;;;4976847;28;20218;-76
2023/03/16 10:39:48;;;;;;;0.50;0.50;;;11.00;55.50;13.70;97263.00;;;;4975803;28;20666;-68
2023/03/16 10:42:37;;;;;;;6.47;4.37;;;11.20;54.20;13.60;97260.00;;;;4977042;28;20693;-68
2023/03/16 10:45:31;;;;;;;1.33;1.07;;;11.50;52.20;13.80;97270.00;;;;4974706;28;20678;-67
2023/03/16 10:48:21;;;;;;;0.87;0.70;;;11.60;52.00;14.20;97254.00;;;;4972985;28;20215;-67
2023/03/16 10:51:15;;;;;;;3.33;2.43;;;11.60;51.30;14.00;97236.00;;;;4976293;28;20215;-75
2023/03/16 10:54:10;;;;;;;6.93;3.50;;;11.90;50.80;14.60;97243.00;;;;4968900;28;20211;-70
2023/03/16 10:57:00;;;;;;;7.40;4.87;;;12.20;50.00;14.10;97256.00;;;;4979313;28;20223;-67
2023/03/16 10:59:50;;;;;;;2.33;1.37;;;12.60;48.00;15.10;97244.00;;;;4979872;28;20198;-67
2023/03/16 11:02:39;;;;;;;0.77;0.77;;;12.70;48.40;15.10;97252.00;;;;4978946;28;20203;-67
2023/03/16 11:05:32;;;;;;;2.83;0.80;;;13.10;47.10;14.80;97237.00;;;;4977147;28;20207;-68
2023/03/16 11:08:26;;;;;;;1.37;0.80;;;13.10;45.50;15.80;97239.00;;;;4977798;28;20223;-69
2023/03/16 11:11:18;;;;;;;3.40;1.47;;;13.40;47.10;16.70;97249.00;;;;4970776;28;20223;-69
2023/03/16 11:14:14;;;;;;;0.53;0.50;;;13.70;47.60;14.00;97234.00;;;;4981833;28;20667;-70
2023/03/16 11:17:09;;;;;;;0.50;0.50;;;13.60;41.60;14.90;97225.00;;;;4986993;28;20215;-70
2023/03/16 11:20:16;;;;;;;0.70;0.50;;;13.60;42.60;16.70;97236.00;;;;4979399;28;20564;-69
2023/03/16 11:23:11;;;;;;;0.60;0.60;;;14.00;44.90;15.90;97227.00;;;;4969352;28;20203;-71
2023/03/16 11:26:06;;;;;;;0.70;0.70;;;13.00;43.30;15.30;97227.00;;;;4977165;28;20207;-74
2023/03/16 11:29:07;;;;;;;1.20;1.07;;;14.10;42.50;16.00;97222.00;;;;4976345;28;20222;-71
2023/03/16 11:32:01;;;;;;;1.00;0.50;;;14.30;41.60;14.60;97217.00;;;;4975540;28;20233;-73
2023/03/16 11:34:52;;;;;;;1.57;0.40;;;14.10;40.20;15.50;97217.00;;;;4978889;28;20217;-68
2023/03/16 11:38:08;;;;;;;0.50;0.50;;;14.10;40.50;16.40;97222.00;;;;4982579;28;20218;-69
2023/03/16 11:41:00;;;;;;;0.80;0.80;;;14.40;41.20;17.70;97220.00;;;;4981477;28;20207;-69
2023/03/16 11:43:52;;;;;;;3.13;0.97;;;14.60;40.40;17.80;97222.00;;;;4969425;28;20786;-69
2023/03/16 11:46:52;;;;;;;1.10;1.00;;;15.10;40.00;17.60;97219.00;;;;4974501;28;20216;-69
2023/03/16 11:49:57;;;;;;;0.70;0.70;;;15.50;41.30;14.90;97198.00;;;;4972384;28;20203;-74
2023/03/16 11:52:57;;;;;;;1.27;0.50;;;15.40;37.50;15.10;97199.00;;;;4970997;28;20223;-71
2023/03/16 11:56:08;;;;;;;1.27;0.53;;;14.70;37.80;16.40;97191.00;;;;4980158;28;20632;-70
2023/03/16 11:59:25;;;;;;;2.73;0.73;;;15.00;38.80;18.20;97200.00;;;;4975394;28;20209;-70
2023/03/16 12:02:39;;;;;;;1.70;0.77;;;15.10;40.40;17.20;97187.00;;;;4973333;28;20556;-70
2023/03/16 12:05:57;;;;;;;1.80;0.40;;;15.80;37.00;15.50;97177.00;;;;4968301;28;20207;-71
2023/03/16 12:09:26;;;;;;;0.83;0.57;;;15.80;34.80;15.40;97161.00;;;;4968903;28;20597;-74
2023/03/16 12:12:41;;;;;;;0.43;0.37;;;15.60;35.60;16.40;97163.00;;;;4973995;28;20223;-68
2023/03/16 12:15:39;;;;;;;0.53;0.53;;;15.40;35.10;19.20;97177.00;;;;4974878;28;20298;-69
2023/03/16 12:18:40;;;;;;;0.87;0.40;;;15.90;36.00;17.80;97172.00;;;;4973058;28;20227;-69
2023/03/16 12:21:34;;;;;;;0.50;0.50;;;16.40;35.20;19.40;97170.00;;;;4973643;28;20203;-69
2023/03/16 12:24:27;;;;;;;0.30;0.30;;;16.70;36.60;16.30;97158.00;;;;4975816;28;20203;-73
2023/03/16 12:27:22;;;;;;;0.87;0.87;;;16.50;35.00;15.70;97140.00;;;;4972746;28;20235;-77
2023/03/16 12:30:29;;;;;;;0.57;0.50;;;16.40;36.70;18.10;97160.00;;;;4978033;28;20213;-71
2023/03/16 12:33:30;;;;;;;1.50;1.13;;;16.40;37.50;19.40;97160.00;;;;4979061;28;20605;-71
2023/03/16 12:36:49;;;;;;;0.50;0.40;;;16.80;37.20;18.90;97152.00;;;;4968702;28;20241;-69
2023/03/16 12:39:55;;;;;;;0.50;0.50;;;17.40;36.90;14.70;97129.00;;;;5006758;28;20725;-76
2023/03/16 12:43:13;;;;;;;0.83;0.63;;;16.60;34.50;16.30;97138.00;;;;5010786;28;20230;-72
2023/03/16 12:46:07;;;;;;;1.43;0.60;;;16.30;36.30;16.80;97136.00;;;;5003483;28;20200;-74
2023/03/16 12:49:01;;;;;;;0.53;0.43;;;16.20;36.60;19.00;97154.00;;;;5011880;28;20199;-68
2023/03/16 12:52:00;;;;;;;1.07;0.57;;;16.40;38.40;19.90;97151.00;;;;5007081;28;20203;-71
2023/03/16 12:54:54;;;;;;;0.77;0.60;;;17.10;38.50;17.40;97151.00;;;;5031947;28;20192;-72
2023/03/16 12:57:45;;;;;;;1.90;0.77;;;17.40;36.50;16.70;97143.00;;;;5009953;28;20227;-70